
Distance (Route):
Temperature : -24.7°C
Humidity : 16.6%
Pressure : 0hPa| Receiver | Frames | First received | Last received |
|---|---|---|---|
| LZ4TU-5 | 68 | 2026-08-31 23:42:42 | 2026-09-01 00:52:01 |
| Receiver | Date | Latitude | Longitude | Direction | Speed | Altitude | Climb | Temperature | Humidity | Pressure | Voltage | Killtimer | Uptime | BKT | XDATA |
|---|---|---|---|---|---|---|---|---|---|---|---|---|---|---|---|
| LZ4TU-5 | 2026-09-01 00:52:01 | 43.26448 | 20.70193 | 96° | 88km/h | 8515m | -17.8m/s | -24.7°C | 16.6% | 0hPa | 0V | 00:00:00 | 00:00:00 | 00:00:00 | |
| LZ4TU-5 | 2026-09-01 00:51:57 | 43.26456 | 20.70073 | 96° | 86km/h | 8586m | -18.1m/s | -25.3°C | 17.4% | 0hPa | 0V | 00:00:00 | 00:00:00 | 00:00:00 | |
| LZ4TU-5 | 2026-09-01 00:49:37 | 43.26573 | 20.65732 | 100° | 110km/h | 11256m | -21.1m/s | -47.5°C | 33.9% | 0hPa | 0V | 00:00:00 | 00:00:00 | 00:00:00 | |
| LZ4TU-5 | 2026-09-01 00:49:32 | 43.26593 | 20.65543 | 100° | 110km/h | 11350m | -21.8m/s | -48.5°C | 35.4% | 0hPa | 0V | 00:00:00 | 00:00:00 | 00:00:00 | |
| LZ4TU-5 | 2026-09-01 00:46:37 | 43.26936 | 20.60134 | 94° | 49km/h | 15887m | -30.2m/s | -58.9°C | 0.0% | 0hPa | 0V | 00:00:00 | 00:00:00 | 00:00:00 | |
| LZ4TU-5 | 2026-09-01 00:46:32 | 43.26936 | 20.60043 | 91° | 55km/h | 16039m | -29.7m/s | -59.9°C | 0.0% | 0hPa | 0V | 00:00:00 | 00:00:00 | 00:00:00 | |
| LZ4TU-5 | 2026-09-01 00:42:33 | 43.26599 | 20.58923 | 336° | 9km/h | 24799m | -42.2m/s | -51.5°C | 0.0% | 0hPa | 0V | 00:00:00 | 00:00:00 | 00:00:00 | |
| LZ4TU-5 | 2026-09-01 00:42:28 | 43.26597 | 20.58931 | 10° | 4km/h | 25016m | -47.9m/s | -50.4°C | 0.0% | 0hPa | 0V | 00:00:00 | 00:00:00 | 00:00:00 | |
| LZ4TU-5 | 2026-09-01 00:40:30 | 43.26667 | 20.59150 | 306° | 27km/h | 30186m | -39.4m/s | -42.2°C | 0.0% | 0hPa | 0V | 00:00:00 | 00:00:00 | 00:00:00 | |
| LZ4TU-5 | 2026-09-01 00:40:25 | 43.26652 | 20.59192 | 295° | 27km/h | 30374m | -33.8m/s | -41.6°C | 0.0% | 0hPa | 0V | 00:00:00 | 00:00:00 | 00:00:00 | |
| LZ4TU-5 | 2026-09-01 00:38:31 | 43.26131 | 20.59686 | 306° | 40km/h | 30336m | 10.9m/s | -42.5°C | 0.0% | 0hPa | 0V | 00:00:00 | 00:00:00 | 00:00:00 | |
| LZ4TU-5 | 2026-09-01 00:38:27 | 43.26110 | 20.59734 | 282° | 27km/h | 30311m | 8.1m/s | -42.7°C | 0.0% | 0hPa | 0V | 00:00:00 | 00:00:00 | 00:00:00 | |
| LZ4TU-5 | 2026-09-01 00:36:37 | 43.26070 | 20.59957 | 36° | 16km/h | 29497m | 8.2m/s | -45.2°C | 0.0% | 0hPa | 0V | 00:00:00 | 00:00:00 | 00:00:00 | |
| LZ4TU-5 | 2026-09-01 00:36:32 | 43.26078 | 20.59956 | 250° | 27km/h | 29465m | 9.0m/s | -45.4°C | 0% | 0hPa | 0V | 00:00:00 | 00:00:00 | 00:00:00 | |
| LZ4TU-5 | 2026-09-01 00:34:43 | 43.26326 | 20.60062 | 132° | 9km/h | 28738m | 6.8m/s | -45.3°C | 0.0% | 0hPa | 0V | 00:00:00 | 00:00:00 | 00:00:00 | |
| LZ4TU-5 | 2026-09-01 00:34:39 | 43.26337 | 20.60044 | 131° | 5km/h | 28712m | 7.0m/s | -45.2°C | 0.0% | 0hPa | 0V | 00:00:00 | 00:00:00 | 00:00:00 | |
| LZ4TU-5 | 2026-09-01 00:32:51 | 43.26369 | 20.60451 | 300° | 18km/h | 27988m | 6.9m/s | -47.6°C | 0.0% | 0hPa | 0V | 00:00:00 | 00:00:00 | 00:00:00 | |
| LZ4TU-5 | 2026-09-01 00:32:46 | 43.26377 | 20.60497 | 274° | 27km/h | 27954m | 6.0m/s | -47.6°C | 0.0% | 0hPa | 0V | 00:00:00 | 00:00:00 | 00:00:00 | |
| LZ4TU-5 | 2026-09-01 00:30:57 | 43.26200 | 20.60861 | 320° | 24km/h | 27215m | 5.8m/s | -47.4°C | 0.0% | 0hPa | 0V | 00:00:00 | 00:00:00 | 00:00:00 | |
| LZ4TU-5 | 2026-09-01 00:30:52 | 43.26165 | 20.60877 | 325° | 27km/h | 27183m | 8.0m/s | -47.3°C | 0.0% | 0hPa | 0V | 00:00:00 | 00:00:00 | 00:00:00 | |
| LZ4TU-5 | 2026-09-01 00:29:04 | 43.26314 | 20.61304 | 284° | 20km/h | 26480m | 6.9m/s | -49.9°C | 0.0% | 0hPa | 0V | 00:00:00 | 00:00:00 | 00:00:00 | |
| LZ4TU-5 | 2026-09-01 00:28:59 | 43.26312 | 20.61334 | 25° | 15km/h | 26449m | 6.5m/s | -50.0°C | 0.0% | 0hPa | 0V | 00:00:00 | 00:00:00 | 00:00:00 | |
| LZ4TU-5 | 2026-09-01 00:26:37 | 43.25967 | 20.61551 | 303° | 18km/h | 25518m | 6.7m/s | -51.1°C | 0.0% | 0hPa | 0V | 00:00:00 | 00:00:00 | 00:00:00 | |
| LZ4TU-5 | 2026-09-01 00:26:32 | 43.25947 | 20.61574 | 340° | 18km/h | 25487m | 4.6m/s | -51.1°C | 0.0% | 0hPa | 0V | 00:00:00 | 00:00:00 | 00:00:00 | |
| LZ4TU-5 | 2026-09-01 00:24:48 | 43.25770 | 20.61562 | 21° | 15km/h | 24814m | 7.0m/s | -52.8°C | 0.0% | 0hPa | 0V | 00:00:00 | 00:00:00 | 00:00:00 | |
| LZ4TU-5 | 2026-09-01 00:24:43 | 43.25754 | 20.61573 | 334° | 35km/h | 24783m | 7.3m/s | -52.8°C | 0.0% | 0hPa | 0V | 00:00:00 | 00:00:00 | 00:00:00 | |
| LZ4TU-5 | 2026-09-01 00:22:58 | 43.25480 | 20.61756 | 312° | 18km/h | 24136m | 6.9m/s | -55.0°C | 0.0% | 0hPa | 0V | 00:00:00 | 00:00:00 | 00:00:00 | |
| LZ4TU-5 | 2026-09-01 00:21:07 | 43.25267 | 20.61974 | 345° | 9km/h | 23460m | 5.1m/s | -55.6°C | 0.2% | 0hPa | 0V | 00:00:00 | 00:00:00 | 00:00:00 | |
| LZ4TU-5 | 2026-09-01 00:21:02 | 43.25260 | 20.61966 | 0° | 0km/h | 23431m | 4.9m/s | -55.7°C | 0.2% | 0hPa | 0V | 00:00:00 | 00:00:00 | 00:00:00 | |
| LZ4TU-5 | 2026-09-01 00:19:16 | 43.25225 | 20.61963 | 26° | 15km/h | 22770m | 6.2m/s | -55.0°C | 0.3% | 0hPa | 0V | 00:00:00 | 00:00:00 | 00:00:00 | |
| LZ4TU-5 | 2026-09-01 00:19:12 | 43.25218 | 20.61972 | 295° | 20km/h | 22744m | 6.5m/s | -55.2°C | 0.3% | 0hPa | 0V | 00:00:00 | 00:00:00 | 00:00:00 | |
| LZ4TU-5 | 2026-09-01 00:17:15 | 43.24949 | 20.62096 | 327° | 13km/h | 22022m | 6.6m/s | -55.5°C | 0.4% | 0hPa | 0V | 00:00:00 | 00:00:00 | 00:00:00 | |
| LZ4TU-5 | 2026-09-01 00:17:11 | 43.24948 | 20.62120 | 281° | 15km/h | 22000m | 6.4m/s | -55.7°C | 0.4% | 0hPa | 0V | 00:00:00 | 00:00:00 | 00:00:00 | |
| LZ4TU-5 | 2026-09-01 00:15:26 | 43.25158 | 20.62223 | 149° | 27km/h | 21368m | 7.5m/s | -54.8°C | 0.7% | 0hPa | 0V | 00:00:00 | 00:00:00 | 00:00:00 | |
| LZ4TU-5 | 2026-09-01 00:15:22 | 43.25169 | 20.62190 | 103° | 29km/h | 21343m | 5.0m/s | -54.9°C | 0% | 0hPa | 0V | 00:00:00 | 00:00:00 | 00:00:00 | |
| LZ4TU-5 | 2026-09-01 00:13:35 | 43.25147 | 20.61528 | 73° | 18km/h | 20741m | 5.2m/s | -55.4°C | 0.9% | 0hPa | 0V | 00:00:00 | 00:00:00 | 00:00:00 | |
| LZ4TU-5 | 2026-09-01 00:13:31 | 43.25141 | 20.61497 | 56° | 16km/h | 20711m | 6.5m/s | -55.5°C | 0.9% | 0hPa | 0V | 00:00:00 | 00:00:00 | 00:00:00 | |
| LZ4TU-5 | 2026-09-01 00:11:46 | 43.24790 | 20.61162 | 0° | 0km/h | 20113m | 6.1m/s | -56.8°C | 1.0% | 0hPa | 0V | 00:00:00 | 00:00:00 | 00:00:00 | |
| LZ4TU-5 | 2026-09-01 00:11:42 | 43.24784 | 20.61164 | 350° | 13km/h | 20088m | 7.4m/s | -57.2°C | 1.1% | 0hPa | 0V | 00:00:00 | 00:00:00 | 00:00:00 | |
| LZ4TU-5 | 2026-09-01 00:10:00 | 43.24393 | 20.60895 | 28° | 33km/h | 19487m | 5.0m/s | -57.8°C | 1.5% | 0hPa | 0V | 00:00:00 | 00:00:00 | 00:00:00 | |
| LZ4TU-5 | 2026-09-01 00:09:55 | 43.24350 | 20.60881 | 2° | 24km/h | 19458m | 5.9m/s | -57.7°C | 1.5% | 0hPa | 0V | 00:00:00 | 00:00:00 | 00:00:00 | |
| LZ4TU-5 | 2026-09-01 00:07:57 | 43.24018 | 20.60336 | 125° | 15km/h | 18797m | 5.1m/s | -58.6°C | 2.0% | 0hPa | 0V | 00:00:00 | 00:00:00 | 00:00:00 | |
| LZ4TU-5 | 2026-09-01 00:06:15 | 43.24036 | 20.59590 | 102° | 20km/h | 18215m | 4.9m/s | -58.0°C | 2.8% | 0hPa | 0V | 00:00:00 | 00:00:00 | 00:00:00 | |
| LZ4TU-5 | 2026-09-01 00:06:10 | 43.24030 | 20.59556 | 73° | 20km/h | 18187m | 6.8m/s | -57.8°C | 2.9% | 0hPa | 0V | 00:00:00 | 00:00:00 | 00:00:00 | |
| LZ4TU-5 | 2026-09-01 00:04:28 | 43.23832 | 20.58575 | 75° | 38km/h | 17615m | 4.6m/s | -58.9°C | 3.6% | 0hPa | 0V | 00:00:00 | 00:00:00 | 00:00:00 | |
| LZ4TU-5 | 2026-09-01 00:04:22 | 43.23823 | 20.58510 | 75° | 31km/h | 17590m | 4.7m/s | -58.9°C | 3.6% | 0hPa | 0V | 00:00:00 | 00:00:00 | 00:00:00 | |
| LZ4TU-5 | 2026-09-01 00:03:04 | 43.23538 | 20.57664 | 81° | 24km/h | 17073m | 6.9m/s | -59.8°C | 5.6% | 0hPa | 0V | 00:00:00 | 00:00:00 | 00:00:00 | |
| LZ4TU-5 | 2026-09-01 00:01:01 | 43.23798 | 20.56611 | 81° | 51km/h | 16477m | 5.2m/s | -62.5°C | 7.8% | 0hPa | 0V | 00:00:00 | 00:00:00 | 00:00:00 | |
| LZ4TU-5 | 2026-08-31 23:59:16 | 43.23643 | 20.54722 | 96° | 38km/h | 15894m | 5.0m/s | -60.5°C | 12.2% | 0hPa | 0V | 00:00:00 | 00:00:00 | 00:00:00 | |
| LZ4TU-5 | 2026-08-31 23:59:12 | 43.23652 | 20.54642 | 95° | 49km/h | 15865m | 6.7m/s | -60.4°C | 12.3% | 0hPa | 0V | 00:00:00 | 00:00:00 | 00:00:00 | |
| LZ4TU-5 | 2026-08-31 23:57:30 | 43.23349 | 20.52560 | 63° | 64km/h | 15255m | 4.5m/s | -63.0°C | 17.2% | 0hPa | 0V | 00:00:00 | 00:00:00 | 00:00:00 | |
| LZ4TU-5 | 2026-08-31 23:57:25 | 43.23314 | 20.52472 | 68° | 58km/h | 15230m | 4.6m/s | -63.1°C | 17.4% | 0hPa | 0V | 00:00:00 | 00:00:00 | 00:00:00 | |
| LZ4TU-5 | 2026-08-31 23:55:43 | 43.23175 | 20.50350 | 85° | 88km/h | 14667m | 5.7m/s | -62.2°C | 22.0% | 0hPa | 0V | 00:00:00 | 00:00:00 | 00:00:00 | |
| LZ4TU-5 | 2026-08-31 23:55:39 | 43.23166 | 20.50234 | 90° | 73km/h | 14648m | 4.7m/s | -62.4°C | 22.3% | 0hPa | 0V | 00:00:00 | 00:00:00 | 00:00:00 | |
| LZ4TU-5 | 2026-08-31 23:53:58 | 43.22947 | 20.47673 | 82° | 66km/h | 14065m | 6.3m/s | -62.6°C | 27.3% | 0hPa | 0V | 00:00:00 | 00:00:00 | 00:00:00 | |
| LZ4TU-5 | 2026-08-31 23:53:52 | 43.22952 | 20.47545 | 102° | 71km/h | 14031m | 6.7m/s | -62.7°C | 27.8% | 0hPa | 0V | 00:00:00 | 00:00:00 | 00:00:00 | |
| LZ4TU-5 | 2026-08-31 23:52:06 | 43.23202 | 20.44503 | 97° | 93km/h | 13387m | 5.1m/s | -61.6°C | 35.1% | 0hPa | 0V | 00:00:00 | 00:00:00 | 00:00:00 | |
| LZ4TU-5 | 2026-08-31 23:52:01 | 43.23226 | 20.44345 | 104° | 91km/h | 13358m | 5.7m/s | -61.8°C | 35.4% | 0hPa | 0V | 00:00:00 | 00:00:00 | 00:00:00 | |
| LZ4TU-5 | 2026-08-31 23:50:02 | 43.23817 | 20.40258 | 107° | 108km/h | 12641m | 7.1m/s | -58.3°C | 35.5% | 0hPa | 0V | 00:00:00 | 00:00:00 | 00:00:00 | |
| LZ4TU-5 | 2026-08-31 23:49:58 | 43.23850 | 20.40075 | 102° | 111km/h | 12609m | 5.8m/s | -58.0°C | 35.3% | 0hPa | 0V | 00:00:00 | 00:00:00 | 00:00:00 | |
| LZ4TU-5 | 2026-08-31 23:48:07 | 43.24480 | 20.35960 | 100° | 113km/h | 11973m | 5.7m/s | -53.8°C | 33.5% | 0hPa | 0V | 00:00:00 | 00:00:00 | 00:00:00 | |
| LZ4TU-5 | 2026-08-31 23:48:02 | 43.24509 | 20.35766 | 104° | 113km/h | 11944m | 3.9m/s | -53.6°C | 33.4% | 0hPa | 0V | 00:00:00 | 00:00:00 | 00:00:00 | |
| LZ4TU-5 | 2026-08-31 23:46:18 | 43.24968 | 20.31712 | 101° | 104km/h | 11369m | 5.2m/s | -48.8°C | 25.8% | 0hPa | 0V | 00:00:00 | 00:00:00 | 00:00:00 | |
| LZ4TU-5 | 2026-08-31 23:46:12 | 43.24992 | 20.31528 | 95° | 115km/h | 11341m | 6.9m/s | -48.5°C | 25.4% | 0hPa | 0V | 00:00:00 | 00:00:00 | 00:00:00 | |
| LZ4TU-5 | 2026-08-31 23:44:27 | 43.25234 | 20.27885 | 95° | 99km/h | 10750m | 5.3m/s | -44.0°C | 24.2% | 0hPa | 0V | 00:00:00 | 00:00:00 | 00:00:00 | |
| LZ4TU-5 | 2026-08-31 23:44:22 | 43.25243 | 20.27719 | 93° | 88km/h | 10722m | 5.8m/s | -43.8°C | 24.6% | 0hPa | 0V | 00:00:00 | 00:00:00 | 00:00:00 | |
| LZ4TU-5 | 2026-08-31 23:42:47 | 43.25233 | 20.24717 | 89° | 108km/h | 10223m | 4.6m/s | -40.2°C | 24.3% | 0hPa | 0V | 00:00:00 | 00:00:00 | 00:00:00 | |
| LZ4TU-5 | 2026-08-31 23:42:42 | 43.25245 | 20.24553 | 97° | 84km/h | 10199m | 3.0m/s | -40.0°C | 24.4% | 0hPa | 0V | 00:00:00 | 00:00:00 | 00:00:00 |